Etusivu
METAR-TAF:

METAR-TAF

Lentoasemat :

Santiago de Compostela, Espanja

Leveyspiiri: 42-54N, Pituuspiiri: 008-26W, korkeus merenpinnasta: 370 m

Tämänhetkinen sää

Tämä raportti tehtiin 33 minuuttia sitten, kello 07.00 UTC
Tuuli 6 kn idästä/kaakosta, vaihdellen idän ja kaakon välillä
Lämpötila 11°C
Kosteus 71%
Ilmanpaine 1016 hPa
Näkyvyys 10 km tai enemmän
ei pilviä alle 1500 m:ssä eikä cumulonimbus-pilviä

METAR: LEST 210700Z 11006KT 080V140 CAVOK 11/06 Q1016 NOSIG

Aika: 09:33 (07:33 UTC)

Sääennuste

Tämä raportti tehtiin 2 tuntia ja 33 minuuttia sitten, kello 05.00 UTC
Ennuste voimassa 21. päivästä klo 06 UTC - 22. päivään klo 06 UTC
Tuuli 9 kn idästä/koillisesta
Näkyvyys 10 km tai enemmän
Muutamia pilviä 1000 ft:n korkeudessa

TAF: LEST 210500Z 2106/2206 07009KT 9999 FEW010 TX24/2115Z TN08/2206Z

Säähavainnot ja -ennusteet yli 4000 lentoasemalta (METAR- ja TAF-raportit).

Käytössä olevat sääasemat on merkitty karttaan keltaisilla ja punaisilla pisteillä.

Aseta hiiri pisteen päälle nähdäksesi sääaseman nimen.

Klikkaa sitten nähdäksesi säähavainnot ja -ennusteet.

Kartan vaihtaminen: klikkaa mustalla rastilla varustettuja vihreitä pisteitä, niin voit zoomata sisään; viivalla varustettua vihreää pistettä, niin voit zoomata ulos tai vihreitä nuolia, niin pääset viereisille kartoille.


METAR-TAF: